createdAt,value
2018-07-30T00:03:12.573Z,50.50
2018-07-30T00:10:18.751Z,51.40
2018-07-30T00:13:52.340Z,51.60
2018-07-30T00:17:25.565Z,51.80
2018-07-30T00:24:31.785Z,51.70
2018-07-30T00:28:05.024Z,51.80
2018-07-30T00:31:38.235Z,52.00
2018-07-30T00:35:11.457Z,52.30
2018-07-30T00:42:17.653Z,53.00
2018-07-30T00:49:23.836Z,52.90
2018-07-30T00:52:57.059Z,52.80
2018-07-30T00:56:30.280Z,53.00
2018-07-30T01:00:03.534Z,53.10
2018-07-30T01:03:36.760Z,53.50
2018-07-30T01:07:10.041Z,54.40
2018-07-30T01:10:43.243Z,53.80
2018-07-30T01:14:16.468Z,53.70
2018-07-30T01:17:49.709Z,53.70
2018-07-30T01:21:22.964Z,53.60
2018-07-30T01:24:56.215Z,53.70
2018-07-30T01:28:29.471Z,54.00
2018-07-30T01:32:02.699Z,54.20
2018-07-30T01:35:35.928Z,54.50
2018-07-30T01:39:09.156Z,54.60
2018-07-30T01:42:42.383Z,54.70
2018-07-30T01:46:15.596Z,54.80
2018-07-30T01:49:48.832Z,54.80
2018-07-30T01:53:22.060Z,54.90
2018-07-30T01:56:55.292Z,55.40
2018-07-30T02:00:28.527Z,55.80
2018-07-30T02:04:01.761Z,56.20
2018-07-30T02:07:34.984Z,56.40
2018-07-30T02:11:08.211Z,56.60
2018-07-30T02:14:41.432Z,56.80
2018-07-30T02:21:47.655Z,57.20
2018-07-30T02:25:20.880Z,57.30
2018-07-30T02:28:54.138Z,57.40
2018-07-30T02:32:27.372Z,57.10
2018-07-30T02:36:00.633Z,57.00
2018-07-30T02:43:06.842Z,57.30
2018-07-30T02:46:40.348Z,57.20
2018-07-30T02:50:13.592Z,57.70
2018-07-30T02:53:46.841Z,58.10
2018-07-30T02:57:20.147Z,58.40
2018-07-30T03:00:53.383Z,58.70
2018-07-30T03:04:26.672Z,58.70
2018-07-30T03:07:59.898Z,58.80
2018-07-30T03:11:33.136Z,58.80
2018-07-30T03:15:06.452Z,59.10
2018-07-30T03:18:39.683Z,59.30
2018-07-30T03:22:12.918Z,59.50
2018-07-30T03:25:46.172Z,59.30
2018-07-30T03:29:19.444Z,59.70
2018-07-30T03:32:52.680Z,59.40
2018-07-30T03:36:25.928Z,59.60
2018-07-30T03:39:59.176Z,59.80
2018-07-30T03:43:32.395Z,59.80
2018-07-30T03:47:06.036Z,59.70
2018-07-30T03:50:39.260Z,59.60
2018-07-30T03:54:12.531Z,59.60
2018-07-30T03:57:45.728Z,59.60
2018-07-30T04:04:51.965Z,59.50
2018-07-30T04:08:25.192Z,60.00
2018-07-30T04:11:58.855Z,60.10
2018-07-30T04:15:32.107Z,59.80
2018-07-30T04:19:05.355Z,59.90
2018-07-30T04:22:38.595Z,60.00
2018-07-30T04:26:12.317Z,60.30
2018-07-30T04:29:47.219Z,60.90
2018-07-30T04:33:20.524Z,60.80
2018-07-30T04:36:53.847Z,60.50
2018-07-30T04:40:27.096Z,60.40
2018-07-30T04:44:00.337Z,60.30
2018-07-30T04:47:33.581Z,60.00
2018-07-30T04:54:39.866Z,59.90
2018-07-30T04:58:13.597Z,59.60
2018-07-30T05:01:47.584Z,59.40
2018-07-30T05:05:20.936Z,59.50
2018-07-30T05:08:54.156Z,59.50
2018-07-30T05:12:27.393Z,59.50
2018-07-30T05:16:00.695Z,59.50
2018-07-30T05:23:06.957Z,58.80
2018-07-30T05:26:40.212Z,58.80
2018-07-30T05:33:46.468Z,58.50
2018-07-30T05:37:19.774Z,57.80
2018-07-30T05:40:53.014Z,57.30
2018-07-30T05:44:26.310Z,57.10
2018-07-30T05:51:32.645Z,56.80
2018-07-30T05:55:06.183Z,56.80
2018-07-30T05:58:39.439Z,56.70
2018-07-30T06:02:12.655Z,56.50
2018-07-30T06:05:46.094Z,56.40
2018-07-30T06:09:19.321Z,56.30
2018-07-30T06:12:52.556Z,56.10
2018-07-30T06:16:25.777Z,55.90
2018-07-30T06:19:59.012Z,55.60
2018-07-30T06:23:32.256Z,55.40
2018-07-30T06:27:05.924Z,54.90
2018-07-30T06:30:39.166Z,54.60
2018-07-30T06:34:12.384Z,54.20
2018-07-30T06:37:45.613Z,53.80
2018-07-30T06:41:18.831Z,53.40
2018-07-30T06:44:52.063Z,52.90
2018-07-30T06:48:25.300Z,52.30
2018-07-30T06:51:58.517Z,51.60
2018-07-30T06:55:31.759Z,51.30
2018-07-30T06:59:04.994Z,50.80
2018-07-30T07:02:38.465Z,51.00
2018-07-30T07:06:11.704Z,51.00
2018-07-30T07:09:44.931Z,50.70
2018-07-30T07:13:18.172Z,50.70
2018-07-30T07:16:51.401Z,49.70
2018-07-30T07:20:24.624Z,49.40
2018-07-30T07:23:57.868Z,49.00
2018-07-30T07:27:31.151Z,48.10
2018-07-30T07:31:04.418Z,48.00
2018-07-30T07:34:37.711Z,47.70
2018-07-30T07:38:10.939Z,46.80
2018-07-30T07:41:44.160Z,46.20
2018-07-30T07:45:17.383Z,45.60
2018-07-30T07:48:50.608Z,45.00
2018-07-30T07:52:23.865Z,44.70
2018-07-30T07:55:57.095Z,44.50
2018-07-30T07:59:30.336Z,43.80
2018-07-30T08:03:03.607Z,43.40
2018-07-30T08:10:09.804Z,42.30
2018-07-30T08:20:49.001Z,41.30
2018-07-30T08:24:22.223Z,40.20
2018-07-30T08:27:55.447Z,40.50
2018-07-30T08:31:28.672Z,40.60
2018-07-30T08:35:02.208Z,40.60
2018-07-30T08:38:35.428Z,39.50
2018-07-30T08:42:08.700Z,39.60
2018-07-30T08:45:41.856Z,39.10
2018-07-30T08:49:15.090Z,38.90
2018-07-30T08:56:21.337Z,38.40
2018-07-30T08:59:54.530Z,38.70
2018-07-30T09:03:27.751Z,37.80
2018-07-30T09:07:01.023Z,37.40
2018-07-30T09:10:34.236Z,37.30
2018-07-30T09:14:07.900Z,37.10
2018-07-30T09:17:41.129Z,37.40
2018-07-30T09:21:14.347Z,36.60
2018-07-30T09:24:47.571Z,36.60
2018-07-30T09:28:20.803Z,36.60
2018-07-30T09:31:54.028Z,36.30
2018-07-30T09:35:27.240Z,36.40
2018-07-30T09:39:00.476Z,36.10
2018-07-30T09:42:33.690Z,35.90
2018-07-30T09:49:39.872Z,35.70
2018-07-30T09:53:13.104Z,35.10
2018-07-30T09:56:46.327Z,35.70
2018-07-30T10:00:25.016Z,35.10
2018-07-30T10:03:59.296Z,35.20
2018-07-30T10:07:32.599Z,34.80
2018-07-30T10:11:05.775Z,34.10
2018-07-30T10:14:39.032Z,34.00
2018-07-30T10:18:12.267Z,33.30
2018-07-30T10:21:45.500Z,33.10
2018-07-30T10:25:18.760Z,33.60
2018-07-30T10:28:51.989Z,32.90
2018-07-30T10:32:25.284Z,33.10
2018-07-30T10:35:58.515Z,32.60
2018-07-30T10:39:31.730Z,32.50
2018-07-30T10:46:37.924Z,31.60
2018-07-30T10:50:11.163Z,30.90
2018-07-30T10:53:44.401Z,30.90
2018-07-30T10:57:17.631Z,31.20
2018-07-30T11:00:50.870Z,31.20
2018-07-30T11:04:24.163Z,31.10
2018-07-30T11:07:57.388Z,30.30
2018-07-30T11:11:30.628Z,30.90
2018-07-30T11:18:36.859Z,32.20
2018-07-30T11:22:10.083Z,32.10
2018-07-30T11:25:43.312Z,32.30
2018-07-30T11:29:16.515Z,32.00
2018-07-30T11:32:49.735Z,30.90
2018-07-30T11:36:22.964Z,30.20
2018-07-30T11:39:56.223Z,31.30
2018-07-30T11:43:29.508Z,29.90
2018-07-30T11:47:02.711Z,30.20
2018-07-30T11:54:08.970Z,29.20
2018-07-30T11:57:42.169Z,29.00
2018-07-30T12:01:15.423Z,28.80
2018-07-30T12:04:48.641Z,28.80
2018-07-30T12:08:21.855Z,26.90
2018-07-30T12:11:55.104Z,26.10
2018-07-30T12:15:28.340Z,26.60
2018-07-30T12:19:01.567Z,26.50
2018-07-30T12:22:34.794Z,26.70
2018-07-30T12:33:13.976Z,27.20
2018-07-30T12:36:47.207Z,27.10
2018-07-30T12:40:20.449Z,27.20
2018-07-30T12:43:53.687Z,27.30
2018-07-30T12:47:26.910Z,27.60
2018-07-30T12:51:00.127Z,27.60
2018-07-30T12:54:33.336Z,27.50
2018-07-30T12:58:06.989Z,27.90
2018-07-30T13:08:46.271Z,26.20
2018-07-30T13:15:52.476Z,26.60
2018-07-30T13:19:25.689Z,26.70
2018-07-30T13:22:58.917Z,26.60
2018-07-30T13:26:32.252Z,26.50
2018-07-30T13:30:06.095Z,26.60
2018-07-30T13:33:39.319Z,26.90
2018-07-30T13:37:12.530Z,26.30
2018-07-30T13:40:45.754Z,26.30
2018-07-30T13:44:18.978Z,26.20
2018-07-30T13:47:52.209Z,25.90
2018-07-30T13:51:25.420Z,25.10
2018-07-30T13:54:58.654Z,25.20
2018-07-30T13:58:31.879Z,25.70
2018-07-30T14:05:38.088Z,25.90
2018-07-30T14:09:12.404Z,26.30
2018-07-30T14:12:45.699Z,26.90
2018-07-30T14:16:18.918Z,27.50
2018-07-30T14:19:52.192Z,27.90
2018-07-30T14:23:25.723Z,28.20
2018-07-30T14:26:58.967Z,28.20
2018-07-30T14:30:32.207Z,28.00
2018-07-30T14:34:05.440Z,28.20
2018-07-30T14:37:38.663Z,28.20
2018-07-30T14:41:11.884Z,28.30
2018-07-30T14:44:45.101Z,28.80
2018-07-30T14:51:51.286Z,28.20
2018-07-30T14:55:24.516Z,28.20
2018-07-30T14:58:57.741Z,27.70
2018-07-30T15:02:30.971Z,28.20
2018-07-30T15:06:04.230Z,27.50
2018-07-30T15:09:37.460Z,28.40
2018-07-30T15:13:10.679Z,28.30
2018-07-30T15:20:16.996Z,28.70
2018-07-30T15:23:51.424Z,28.80
2018-07-30T15:27:24.897Z,28.60
2018-07-30T15:30:58.268Z,28.80
2018-07-30T15:34:31.622Z,29.00
2018-07-30T15:41:38.257Z,29.10
2018-07-30T15:45:11.587Z,29.30
2018-07-30T15:48:44.959Z,29.20
2018-07-30T15:52:18.337Z,29.10
2018-07-30T15:55:51.599Z,28.90
2018-07-30T15:59:24.961Z,29.40
2018-07-30T16:02:58.353Z,29.30
2018-07-30T16:06:31.849Z,29.40
2018-07-30T16:10:05.340Z,29.60
2018-07-30T16:13:38.732Z,29.80
2018-07-30T16:17:11.987Z,29.90
2018-07-30T16:20:45.234Z,29.90
2018-07-30T16:24:18.480Z,30.10
2018-07-30T16:27:51.708Z,30.20
2018-07-30T16:31:24.936Z,30.10
2018-07-30T16:34:58.171Z,30.20
2018-07-30T16:38:31.415Z,30.20
2018-07-30T16:42:04.671Z,30.10
2018-07-30T16:45:38.041Z,30.10
2018-07-30T16:49:11.274Z,30.40
2018-07-30T16:52:44.510Z,30.30
2018-07-30T16:56:17.741Z,30.30
2018-07-30T16:59:50.995Z,30.20
2018-07-30T17:03:24.251Z,30.20
2018-07-30T17:10:30.464Z,30.10
2018-07-30T17:14:03.698Z,30.20
2018-07-30T17:17:36.936Z,30.30
2018-07-30T17:24:43.149Z,30.50
2018-07-30T17:28:16.420Z,30.50
2018-07-30T17:31:49.668Z,30.40
2018-07-30T17:35:22.924Z,30.60
2018-07-30T17:38:56.148Z,30.70
2018-07-30T17:46:02.339Z,31.70
2018-07-30T17:49:35.555Z,31.90
2018-07-30T17:53:08.827Z,32.30
2018-07-30T17:56:42.028Z,31.80
2018-07-30T18:03:49.228Z,32.50
2018-07-30T18:07:22.505Z,32.90
2018-07-30T18:10:56.565Z,33.80
2018-07-30T18:14:29.873Z,34.30
2018-07-30T18:18:03.188Z,34.60
2018-07-30T18:21:36.428Z,34.60
2018-07-30T18:25:09.683Z,35.40
2018-07-30T18:28:42.954Z,35.60
2018-07-30T18:32:16.172Z,35.90
2018-07-30T18:39:22.492Z,35.60
2018-07-30T18:42:55.740Z,35.60
2018-07-30T18:46:29.060Z,35.50
2018-07-30T18:53:54.829Z,36.40
2018-07-30T18:57:28.063Z,36.10
2018-07-30T19:01:01.352Z,36.00
2018-07-30T19:04:34.583Z,35.60
2018-07-30T19:08:08.649Z,35.70
2018-07-30T19:11:41.936Z,35.10
2018-07-30T19:15:15.208Z,34.70
2018-07-30T19:18:48.436Z,34.80
2018-07-30T19:22:21.825Z,34.80
2018-07-30T19:25:55.109Z,34.70
2018-07-30T19:29:28.428Z,35.90
2018-07-30T19:33:01.685Z,36.10
2018-07-30T19:36:34.938Z,36.50
2018-07-30T19:40:08.188Z,36.90
2018-07-30T19:43:41.498Z,37.00
2018-07-30T19:47:14.816Z,36.80
2018-07-30T19:50:48.036Z,37.30
2018-07-30T19:57:54.592Z,36.70
2018-07-30T20:01:27.488Z,36.50
2018-07-30T20:05:00.703Z,36.30
2018-07-30T20:08:33.932Z,36.10
2018-07-30T20:15:40.253Z,35.40
2018-07-30T20:19:13.468Z,37.20
2018-07-30T20:22:46.729Z,37.10
2018-07-30T20:29:52.986Z,39.00
2018-07-30T20:33:26.754Z,38.10
2018-07-30T20:37:00.056Z,39.20
2018-07-30T20:40:33.259Z,38.50
2018-07-30T20:44:06.504Z,38.50
2018-07-30T20:47:39.993Z,38.80
2018-07-30T20:51:13.617Z,38.90
2018-07-30T20:54:46.957Z,39.00
2018-07-30T20:58:20.172Z,39.20
2018-07-30T21:01:53.441Z,38.60
2018-07-30T21:09:07.348Z,38.50
2018-07-30T21:12:40.580Z,38.90
2018-07-30T21:16:13.824Z,39.20
2018-07-30T21:19:47.060Z,39.30
2018-07-30T21:23:20.285Z,40.10
2018-07-30T21:26:53.538Z,40.60
2018-07-30T21:30:26.764Z,40.40
2018-07-30T21:34:00.039Z,41.00
2018-07-30T21:37:33.250Z,41.20
2018-07-30T21:41:06.676Z,41.70
2018-07-30T21:44:39.916Z,41.20
2018-07-30T21:51:46.167Z,42.50
2018-07-30T21:55:19.444Z,43.10
2018-07-30T21:58:52.691Z,43.60
2018-07-30T22:02:25.917Z,44.00
2018-07-30T22:06:00.052Z,44.30
2018-07-30T22:09:33.396Z,44.50
2018-07-30T22:13:06.636Z,44.40
2018-07-30T22:20:12.862Z,43.60
2018-07-30T22:23:46.097Z,43.50
2018-07-30T22:27:19.333Z,43.70
2018-07-30T22:30:52.577Z,43.80
2018-07-30T22:34:25.813Z,43.80
2018-07-30T22:37:59.063Z,43.50
2018-07-30T22:41:32.271Z,43.30
2018-07-30T22:45:05.624Z,43.60
2018-07-30T22:48:38.840Z,43.70
2018-07-30T22:52:12.363Z,43.80
2018-07-30T22:55:45.602Z,43.60
2018-07-30T22:59:18.839Z,43.80
2018-07-30T23:02:52.076Z,44.20
2018-07-30T23:06:27.083Z,44.10
2018-07-30T23:10:00.473Z,44.00
2018-07-30T23:13:33.708Z,44.00
2018-07-30T23:17:07.278Z,44.10
2018-07-30T23:24:13.465Z,45.00
2018-07-30T23:27:46.695Z,45.10
2018-07-30T23:31:19.908Z,45.60
2018-07-30T23:34:53.191Z,46.00
2018-07-30T23:38:26.424Z,46.00
2018-07-30T23:41:59.685Z,46.10
2018-07-30T23:45:33.200Z,46.00
2018-07-30T23:49:06.437Z,46.00
2018-07-30T23:52:39.659Z,46.40
2018-07-30T23:56:12.941Z,46.70
2018-07-30T23:59:46.169Z,47.00
